Fábio Alves

Recruteur en chef - Juventude
14 Oct 2027
Jeudi
Processus

Personnalité

Adaptabilité (1) Ambition (3) Controverse (9) Loyauté (7) Pression (1) Professionnalisme (13) Sportivité (19) Tempérament (1)

Profil

Style d'entraînement Démocratique
Diplôme Continental B
Détermination 4
Gestion des joueurs 9
Motivation 9
Discipline 4
Satisfaction professionnelle
100%
Fatigue
0%
Rôle Recruteur en chef
Salaire 86.8K p/s
Contrat 14.03.2029

Performance

Comportement Bon
Efficacité de l'entraînement
34%
Développement des joueurs
50%
Prévention des blessures
55%
Mise en place tactique
25%

Événements récents

A participé à une réunion de recrutement maintenant
A participé à une réunion de recrutement maintenant
A recommandé une cible de transfert maintenant
A recommandé une cible de transfert maintenant
A recommandé une cible de transfert maintenant
A recommandé une cible de transfert maintenant
A participé à une réunion de recrutement maintenant
A participé à une réunion de recrutement maintenant

Suivi en cours

196
Joueur Club Statut Capacité Confiance Observé Dernière observation Dernier vote
Alejo Cruz Juventud Actif 116 / 124 40% 3 13.10.2027 -
Armindo Sieb Los Angeles Football Club Actif 137 / 127 40% 1 13.10.2027 -
Leonardo Campana New England Revolution Actif 126 / 133 40% 4 12.10.2027 -
Fabricio Rojas Gimnasia y Tiro Actif 122 / 109 40% 2 12.10.2027 -
Dejan Joveljić Seattle Sounders Actif 128 / 137 40% 2 11.10.2027 -
Alexis Cuello San Lorenzo Actif 118 / 120 40% 2 11.10.2027 -
Negueba Mirassol Actif 128 / 123 40% 3 10.10.2027 -
Bahia Criciuma Actif 111 / 126 40% 1 10.10.2027 -
Tomás Aranda Boca Juniors Actif 121 / 115 40% 1 10.10.2027 -
Luca Langoni Colorado Rapids Actif 141 / 122 40% 3 09.10.2027 -
Kauã Moraes Cruzeiro Actif 135 / 126 40% 1 07.10.2027 -
Gabriel Mec Porto Actif 133 / 138 40% 1 07.10.2027 -
Jorge Obregón Deportivo Pasto Actif 124 / 109 40% 2 06.10.2027 -
Jonathan Cañete Portuguesa Actif 124 / 112 40% 3 06.10.2027 -
Timo Werner San Jose Earthquakes Actif 128 / 135 40% 2 04.10.2027 -
Lisandro Cabrera Maipú Actif 118 / 111 40% 1 04.10.2027 -
Rafael Navarro St. Louis CITY SC Actif 123 / 125 40% 4 03.10.2027 -
Wessam Abou Ali Columbus Crew Actif 137 / 130 40% 1 03.10.2027 -
Mateo Peralta Danubio Actif 117 / 117 40% 2 02.10.2027 -
Wisdom Udom Bendel Insurance Actif 76 / 97 40% 1 02.10.2027 -
Emmanuel Sabbi Vancouver Whitecaps Actif 134 / 123 40% 1 02.10.2027 -
Martín Ojeda Orlando City Actif 145 / 143 40% 1 01.10.2027 -
Daniel Ferraresi Llaneros Actif 87 / 85 40% 2 29.09.2027 -
Olívio Tomé Benfica Actif 103 / 125 40% 1 29.09.2027 -
Cheikh Sabaly Vancouver Whitecaps Actif 121 / 125 40% 1 28.09.2027 -
Luciano Inverso Rentistas Actif 117 / 114 40% 1 27.09.2027 -
Jefry Zapata Danubio Actif 126 / 120 40% 1 27.09.2027 -
Joel Ezra Enyimba Actif 89 / 94 40% 2 25.09.2027 -
Hassan Beja AFC Leopards Actif 87 / 98 40% 1 25.09.2027 -
Lucas Ríos Atlanta Actif 115 / 112 40% 1 23.09.2027 -
Agustín Gallo Tristán Suárez Actif 115 / 114 40% 1 23.09.2027 -
Leandro Suhr Boston River Actif 129 / 117 40% 1 22.09.2027 -
Bénie Traoré New York City Actif 143 / 121 40% 1 22.09.2027 -
Alex Amaefula Kun Khalifat Actif 69 / 77 40% 2 21.09.2027 -
Gianluca Pugliese Güemes Actif 102 / 115 40% 2 21.09.2027 -
Duncan McGuire Houston Dynamo Actif 120 / 130 40% 1 21.09.2027 -
Figueiredo Sampaio Correa Actif 97 / 96 40% 1 21.09.2027 -
Juan Cruz de los Santos Nacional Actif 133 / 126 40% 1 19.09.2027 -
Adalberto Peñaranda Deportivo Tachira Actif 114 / 109 40% 2 18.09.2027 -
Diogo Guzmán Montevideo City Torque Actif 123 / 117 40% 3 17.09.2027 -
Mustapha Umar Kano Pillars Actif 85 / 89 40% 2 17.09.2027 -
Eric Ramírez Llaneros Actif 127 / 117 40% 1 17.09.2027 -
Alexis Domínguez Chacarita Juniors Actif 107 / 114 40% 1 17.09.2027 -
Santiago Sala Güemes Actif 122 / 109 40% 1 13.09.2027 -
Juan Rodríguez Wanderers Actif 87 / 110 40% 1 13.09.2027 -
Luis Vidal Deportivo Pereira Actif 79 / 87 40% 1 13.09.2027 -
Tiziano Dornell Danubio Actif 106 / 124 40% 1 11.09.2027 -
Enzo Cabrera Danubio Actif 108 / 115 40% 1 11.09.2027 -
Matías Sosa Arsenal Actif 111 / 115 40% 1 10.09.2027 -
Mateo Silvetti Los Angeles Football Club Actif 143 / 120 40% 3 09.09.2027 -
Francisco Rincon Llaneros Actif 102 / 98 40% 1 09.09.2027 -
Sebastián Cocimano Nueva Chicago Actif 119 / 115 40% 1 09.09.2027 -
Juan Román Gimenez Estudiantes Actif 88 / 98 40% 2 30.08.2027 -
Luis Otávio Colorado Rapids Actif 125 / 113 40% 1 30.08.2027 -
Luke Baartman ES Mostaganem Actif 120 / 120 40% 2 29.08.2027 -
Esteban de Lima Tacuarembo Actif 93 / 100 40% 2 29.08.2027 -
Maren Kefas Plateau United Actif 89 / 95 40% 2 28.08.2027 -
Daniel Awuni Aduana Stars Actif 107 / 107 40% 1 27.08.2027 -
Manuel Kissanga Fortuna Mfou Actif 89 / 98 40% 1 27.08.2027 -
Lucas Camejo River Plate Actif 75 / 91 40% 2 24.08.2027 -
Rasco Abassah Bechem United Actif 81 / 74 40% 2 24.08.2027 -
Ibrahim Sabiu Bendel Insurance Actif 88 / 90 40% 2 23.08.2027 -
Francisco Triver River Plate Actif 84 / 103 40% 1 22.08.2027 -
Chinedu Nwosu Bendel Insurance Actif 73 / 89 40% 1 22.08.2027 -
Mamoutou Berthé US Bougouba Actif 99 / 113 40% 1 19.08.2027 -
Ishmael Addo Heart of Lions Actif 103 / 89 40% 1 18.08.2027 -
Davide Bartesaghi AC Milan Actif 139 / 147 40% 2 17.08.2027 -
Rodrigo Mora AS Roma Actif 126 / 144 40% 1 17.08.2027 -
Sascha Britschgi Padova Actif 128 / 132 40% 3 12.08.2027 -
Mattia Rutigliano Pro Vercelli Actif 90 / 104 40% 1 12.08.2027 -
Lucas Duré Montevideo City Torque Actif 97 / 109 40% 1 11.08.2027 -
João Abreu Porto Actif 103 / 111 40% 1 09.08.2027 -
Leo Castledine Middlesbrough Actif 122 / 131 40% 1 09.08.2027 -
Zane Albarus Cambridge United Actif 101 / 103 40% 2 06.08.2027 -
Rayan Demirci Porto Actif 103 / 97 40% 1 06.08.2027 -
Leandro Martins Benfica Actif 101 / 109 40% 3 05.08.2027 -
Paulo Cardoso Sporting CP Actif 92 / 109 40% 1 05.08.2027 -
Tomás Peixoto Porto Actif 77 / 94 40% 1 04.08.2027 -
Francisco Fernandes Porto Actif 101 / 108 40% 1 04.08.2027 -
Oscar Schwartau Norwich City Actif 122 / 138 40% 1 03.08.2027 -
Finley McAllister Grimsby Town Actif 93 / 100 40% 1 03.08.2027 -
João Dalla Corte Internacional Actif 98 / 104 55% 1 05.07.2027 -
Hwang Hee-Chan Wolverhampton Actif 149 / 138 40% 1 28.06.2027 -
Joel McGregor Swindon Town Actif 79 / 99 40% 4 16.06.2027 -
Keagan Tau Ajax Cape Town Actif 81 / 108 40% 1 16.06.2027 -
Víctor Guzmán Sporting CP Actif 83 / 98 40% 1 07.06.2027 -
Mathis Jangeal Famalicao Négociation 117 / 114 40% 1 07.06.2027 -
Yuri Alberto Köln Négociation 140 / 141 67% 1 01.06.2027 Approuver
Dion Beljo Standard Liege Négociation 131 / 132 66% 1 01.06.2027 Approuver
João Fonseca Benfica Actif 117 / 109 40% 1 31.05.2027 -
Josh Smith Accrington Stanley Actif 74 / 92 40% 2 30.05.2027 -
Christos Mouzakitis Hull City Actif 131 / 143 40% 2 29.05.2027 -
Yussif Saidu Zaragoza Actif 107 / 120 40% 2 29.05.2027 -
Gonçalo Oliveira Benfica Actif 127 / 107 40% 3 28.05.2027 -
Rafael Quintas Benfica Actif 97 / 94 40% 1 28.05.2027 -
Simone Kosijer Triestina Actif 95 / 100 40% 1 27.05.2027 -
Daniel Costa Sporting CP Actif 104 / 108 40% 1 27.05.2027 -
Daniel Vernattus Metalist Actif 106 / 96 40% 2 26.05.2027 -
Pietro Reggiori Pro Patria Actif 102 / 90 40% 1 26.05.2027 -
Adam Bakoune Ospitaletto Actif 83 / 97 40% 3 25.05.2027 -
Darryl Bakola Padova Actif 97 / 123 40% 1 25.05.2027 -
Martim Cunha Porto Actif 110 / 108 40% 1 23.05.2027 -
Dylan Lawlor Cardiff City Actif 123 / 116 40% 3 19.05.2027 -
Juan Giménez Celta Actif 100 / 125 40% 2 17.05.2027 -
Caleb Yirenkyi Coventry City Actif 150 / 135 40% 1 16.05.2027 -
Daniel Kelly Oxford United Actif 114 / 121 40% 1 13.05.2027 -
Jofre Torrents Ajax Actif 111 / 135 40% 2 10.05.2027 -
Josh King Chelsea Actif 130 / 144 40% 1 09.05.2027 -
Ernie Weaver AFC Wimbledon Actif 111 / 118 40% 2 04.05.2027 -
Kevin Pinto Benfica Actif 100 / 105 40% 1 04.05.2027 -
Matías Gómez Granada Actif 114 / 112 40% 1 30.04.2027 -
Kazunari Kita Real Sociedad Actif 84 / 95 40% 1 28.04.2027 -
Toni Tamarit Alverca Actif 129 / 130 40% 1 25.04.2027 -
Salvador Blopá Casa Pia Actif 115 / 123 40% 1 22.04.2027 -
Martim Fernandes Porto Actif 126 / 136 40% 3 21.04.2027 -
Cheveyo Tsawa Club Brugge Actif 133 / 123 40% 1 16.04.2027 -
Rayhan Momade Sporting CP Actif 99 / 90 40% 1 14.04.2027 -
Ibrahim Maza Bayer Leverkusen Actif 137 / 153 40% 1 14.04.2027 -
João Capucho Benfica Actif 89 / 106 40% 1 13.04.2027 -
Tomás Cruz Benfica Actif 94 / 107 40% 1 15.12.2026 -
Amar Memić Casa Pia Négociation 127 / 128 62% 1 01.12.2026 Approuver
Andreas Trimmel Red Bull Salzburg Actif 131 / 131 60% 1 01.12.2026 Approuver
Pau Víctor AVS Actif 127 / 138 40% 2 29.11.2026 -
Ole Pohlmann Rio Ave Actif 140 / 124 40% 3 29.11.2026 -
Everton Bala Levski Actif 120 / 119 40% 1 29.11.2026 -
Manu Pozo Torreense Actif 118 / 116 40% 2 27.11.2026 -
Arjan Malić Sturm Graz Actif 112 / 115 40% 1 26.11.2026 -
Dinis Rodrigues Porto Actif 104 / 100 40% 1 26.11.2026 -
Luis Mina Vizela Actif 114 / 114 40% 1 25.11.2026 -
Ianis Stoica Estrela da Amadora Actif 117 / 109 40% 2 22.11.2026 -
Alfonso Trezza Arouca Actif 136 / 111 40% 1 22.11.2026 -
Yanis Begraoui Estoril Praia Actif 137 / 125 40% 4 21.11.2026 -
Taichi Fukui Arouca Actif 132 / 134 40% 2 21.11.2026 -
Martín Tejón Maritimo Actif 98 / 112 40% 1 19.11.2026 -
Dawda Camara Alverca Actif 130 / 119 40% 1 18.11.2026 -
Adnan Courtois KV Oostende Actif 119 / 137 40% 1 18.11.2026 -
Víctor Gómez Braga Actif 153 / 141 40% 2 15.11.2026 -
Lee Hyun-Ju Arouca Actif 135 / 125 40% 1 15.11.2026 -
Figueiredo Alverca Actif 120 / 126 40% 7 14.11.2026 -
Ricard Sánchez Estoril Praia Actif 114 / 124 40% 2 14.11.2026 -
Lucas Duarte Felgueiras Actif 104 / 112 40% 1 14.11.2026 -
Luis Quintero Torreense Actif 122 / 128 40% 2 13.11.2026 -
Dylan Nandín Arouca Actif 108 / 113 40% 2 12.11.2026 -
Manfred Ugalde Spartak Moscow Actif 127 / 131 40% 1 12.11.2026 -
Agustín Módica Gimnasia y Esgrima Actif 117 / 116 40% 1 11.11.2026 -
Roberto Fernández Braga Actif 147 / 150 40% 2 09.11.2026 Plus d'infos
Ozziel Herrera Tigres Actif 124 / 136 40% 1 09.11.2026 -
Zé Leite Leixões Actif 110 / 116 40% 2 08.11.2026 -
Santi García Gil Vicente Actif 140 / 140 40% 4 07.11.2026 -
João Mendes Vitoria Guimaraes Actif 111 / 121 40% 1 07.11.2026 -
William Gomes Porto Actif 149 / 153 40% 2 05.11.2026 -
André Lacximicant Estoril Praia Actif 94 / 121 40% 1 05.11.2026 -
Henry Mosquera Bragantino Actif 125 / 124 40% 2 02.11.2026 Plus d'infos
Lorougnon Gohi Académico de Viseu Actif 119 / 110 40% 1 02.11.2026 Plus d'infos
Léo Teixeira Felgueiras Actif 114 / 98 40% 1 01.11.2026 -
Bruno Ramos Sporting CP Actif 115 / 120 40% 1 31.10.2026 -
Bryan Limbombe Maritimo Actif 107 / 120 40% 1 29.10.2026 -
Marcos Peña Famalicao Actif 101 / 125 40% 1 28.10.2026 -
Chiheb Labidi Nacional Actif 132 / 109 40% 3 27.10.2026 -
José Neto Moreirense Actif 113 / 111 40% 2 26.10.2026 -
Kevin Vazquez Cruz Azul Actif 138 / 129 40% 1 26.10.2026 -
Álvaro Barreal Santos Actif 142 / 126 40% 1 24.10.2026 -
Rafik Guitane Estoril Praia Actif 127 / 131 40% 1 23.10.2026 -
Jalen Blesa Rio Ave Actif 116 / 109 40% 3 22.10.2026 -
Nabil Touaizi Alverca Actif 117 / 119 40% 1 21.10.2026 -
Eric Ramires Bragantino Actif 140 / 131 40% 2 19.10.2026 Plus d'infos
Andrés Gómez Vasco da Gama Actif 141 / 134 40% 2 19.10.2026 -
João Teixeira Porto Actif 98 / 122 40% 1 19.10.2026 -
Razvan Balasa Crvena Zvezda Actif 146 / 136 40% 1 16.10.2026 -
Naïs Djouahra Arouca Actif 131 / 119 40% 1 13.10.2026 -
Nuno Moreira Vasco da Gama Actif 142 / 138 40% 2 12.10.2026 -
Pedro Bondo Famalicao Actif 109 / 131 40% 1 12.10.2026 -
Juanda Fuentes Penafiel Actif 106 / 98 40% 1 12.10.2026 -
Valery Académico de Viseu Actif 136 / 109 40% 2 10.10.2026 -
Vangelis Pavlidis Twente Actif 159 / 159 40% 1 08.10.2026 -
Juan María Alcedo Torreense Actif 128 / 104 40% 1 05.10.2026 -
Daniel Júnior Nacional Actif 118 / 106 40% 1 04.10.2026 -
Matheuzinho Corinthians Actif 138 / 120 40% 1 03.10.2026 -
Gabri Martínez Braga Actif 127 / 129 40% 1 01.10.2026 -
MT Santa Clara Actif 130 / 126 40% 2 27.09.2026 -
Tony Strata Vitoria Guimaraes Actif 108 / 116 40% 1 26.09.2026 -
Luis Sinisterra Cruzeiro Actif 137 / 132 40% 1 26.09.2026 -
Vinicinho Bragantino Actif 131 / 129 40% 2 25.09.2026 -
Alan Lescano Argentinos Juniors Actif 129 / 128 40% 2 23.09.2026 -
Jordan van der Gaag Leiria Actif 125 / 115 40% 1 18.09.2026 -
Soma Anzai FC Tokyo Actif 122 / 119 40% 1 17.09.2026 -
Caio Alexandre Bahia Actif 146 / 134 40% 1 15.09.2026 -
Rémi Lemoine Chamois Niortais Actif 157 / 147 40% 1 10.09.2026 -
Facundo Cáseres Gil Vicente Actif 116 / 118 40% 1 09.09.2026 -
Victor Froholdt Porto Actif 145 / 149 40% 1 08.09.2026 -
Óscar Rivas Vitoria Guimaraes Actif 122 / 107 40% 1 05.08.2026 -
Sikou Niakaté Braga Actif 143 / 147 40% 1 04.08.2026 -
Javi Sánchez Arouca Actif 134 / 141 40% 1 04.08.2026 -
Tidjany Touré Gil Vicente Actif 106 / 114 40% 1 02.08.2026 -
Weverson Gil Vicente Actif 102 / 120 40% 1 01.08.2026 -
Makan Aïko Tondela Actif 104 / 123 40% 1 01.08.2026 -